Time;durP1;ratioP1;P1;durP2;ratioP2;P2;SDS_P1;SDS_P2;PMS_P1;PMS_P2;Temp;Humidity;BMP_temperature;BMP_pressure;BME280_temperature;BME280_humidity;BME280_pressure;Samples;Min_cycle;Max_cycle;Signal;HPM_P1;HPM_P2
2022/01/16 00:01:02;;;;;;;32.78;17.38;;;0.40;99.90;;;-0.56;100.00;97896.75;5004566;28;20338;-46
2022/01/16 00:06:13;;;;;;;33.20;16.38;;;0.30;99.90;;;-0.58;100.00;97920.06;5000397;28;20040;-45
2022/01/16 00:08:39;;;;;;;33.47;16.77;;;0.40;99.90;;;-0.56;100.00;97914.03;4982649;28;20045;-46
2022/01/16 00:11:05;;;;;;;33.50;17.33;;;0.30;99.90;;;-0.49;100.00;97905.50;4996171;28;20034;-47
2022/01/16 00:13:31;;;;;;;35.28;17.23;;;0.40;99.90;;;-0.64;100.00;97911.34;4999650;28;20088;-41
2022/01/16 00:15:56;;;;;;;36.08;18.65;;;0.40;99.90;;;-0.55;100.00;97926.16;4993874;28;20033;-47
2022/01/16 00:18:26;;;;;;;35.53;18.30;;;0.40;99.90;;;-0.61;100.00;97925.22;4995564;28;20049;-48
2022/01/16 00:20:52;;;;;;;34.35;17.23;;;0.40;99.90;;;-0.58;100.00;97937.31;5000844;28;20042;-49
2022/01/16 00:23:24;;;;;;;32.83;16.77;;;0.30;99.90;;;-0.52;100.00;97936.53;4994843;28;20033;-46
2022/01/16 00:25:53;;;;;;;32.17;16.83;;;0.40;99.90;;;-0.50;100.00;97922.78;4992316;28;22032;-47
2022/01/16 00:28:19;;;;;;;35.20;17.85;;;0.40;99.90;;;-0.64;100.00;97917.38;4992383;28;20038;-48
2022/01/16 00:30:46;;;;;;;38.80;17.90;;;0.40;99.90;;;-0.78;100.00;97931.84;4992825;28;20153;-49
2022/01/16 00:33:12;;;;;;;32.83;17.65;;;0.30;99.90;;;-0.82;100.00;97924.88;4997814;28;20045;-48
2022/01/16 00:35:38;;;;;;;36.40;17.40;;;0.20;99.90;;;-0.75;100.00;97902.50;4991538;28;20648;-49
2022/01/16 00:38:05;;;;;;;31.25;16.33;;;0.20;99.90;;;-0.77;100.00;97911.13;4993085;28;20033;-49
2022/01/16 00:40:31;;;;;;;30.50;16.02;;;0.30;99.90;;;-0.70;100.00;97919.88;4994048;28;20498;-47
2022/01/16 00:42:57;;;;;;;29.38;15.95;;;0.20;99.90;;;-0.62;100.00;97928.63;4995758;28;20137;-48
2022/01/16 00:45:24;;;;;;;29.30;16.30;;;0.30;99.90;;;-0.57;100.00;97933.91;4995078;28;20034;-45
2022/01/16 00:47:51;;;;;;;30.27;15.52;;;0.30;99.90;;;-0.51;100.00;97920.16;4991783;28;20192;-43
2022/01/16 00:50:16;;;;;;;35.15;17.42;;;0.40;99.90;;;-0.47;100.00;97932.31;4994156;28;20037;-44
2022/01/16 00:52:42;;;;;;;32.75;17.05;;;0.40;99.90;;;-0.49;100.00;97919.31;5000322;28;20034;-47
2022/01/16 00:55:08;;;;;;;35.03;17.92;;;0.40;99.90;;;-0.51;100.00;97938.31;4992952;28;20054;-47
2022/01/16 00:57:34;;;;;;;33.75;17.85;;;0.40;99.90;;;-0.55;100.00;97932.19;4993541;28;20593;-48
2022/01/16 01:00:00;;;;;;;32.97;17.77;;;0.40;99.90;;;-0.52;100.00;97953.00;4993220;28;20056;-46
2022/01/16 01:02:25;;;;;;;37.45;18.52;;;0.40;99.90;;;-0.51;100.00;97944.34;4994176;28;20995;-46
2022/01/16 01:04:52;;;;;;;35.28;17.23;;;0.40;99.90;;;-0.48;100.00;97962.53;4993906;28;20607;-48
2022/01/16 01:07:18;;;;;;;30.25;17.08;;;0.40;99.90;;;-0.49;100.00;97949.56;5000994;28;20038;-47
2022/01/16 01:09:44;;;;;;;37.85;18.50;;;0.40;99.90;;;-0.48;100.00;97943.53;4992302;28;20033;-49
2022/01/16 01:12:13;;;;;;;38.00;18.80;;;0.50;99.90;;;-0.54;100.00;97958.97;4993730;28;20172;-47
2022/01/16 01:14:42;;;;;;;38.40;18.60;;;0.40;99.90;;;-0.65;100.00;97964.84;4993358;28;20143;-49
2022/01/16 01:17:12;;;;;;;38.13;19.15;;;0.30;99.90;;;-0.70;100.00;97952.66;4993936;28;20136;-46
2022/01/16 01:19:38;;;;;;;43.17;20.17;;;0.30;99.90;;;-0.85;100.00;97935.16;4991043;28;20033;-45
2022/01/16 01:22:05;;;;;;;40.20;19.73;;;0.20;99.90;;;-0.81;100.00;97872.19;4992404;28;20139;-46
2022/01/16 01:24:34;;;;;;;43.35;19.33;;;0.10;99.90;;;-0.77;100.00;97850.72;4991156;28;20484;-46
2022/01/16 01:29:32;;;;;;;36.58;18.83;;;0.20;99.90;;;-0.79;100.00;97860.16;4996983;28;20049;-46
2022/01/16 01:32:00;;;;;;;42.00;20.42;;;0.10;99.90;;;-0.88;100.00;97865.19;5003052;28;20084;-48
2022/01/16 01:34:26;;;;;;;37.35;19.05;;;0.10;99.90;;;-0.91;100.00;97868.63;4979741;28;20468;-46
2022/01/16 01:36:51;;;;;;;38.78;19.15;;;0.10;99.90;;;-0.88;100.00;97906.63;4999287;28;20064;-47
2022/01/16 01:39:22;;;;;;;39.75;18.77;;;0.10;99.90;;;-0.94;100.00;97922.94;4987025;28;20278;-46
2022/01/16 01:41:55;;;;;;;45.30;20.45;;;0.10;99.90;;;-1.00;100.00;97944.41;4991310;28;20034;-46
2022/01/16 01:52:35;;;;;;;36.33;18.73;;;0.00;99.90;;;-0.93;100.00;97950.59;4993650;28;20527;-49
2022/01/16 01:55:01;;;;;;;43.13;20.13;;;0.00;99.90;;;-1.03;100.00;97954.72;4991079;28;20037;-46
2022/01/16 01:57:26;;;;;;;36.88;18.33;;;0.00;99.90;;;-1.04;100.00;97941.72;4990776;28;20493;-46
2022/01/16 01:59:52;;;;;;;40.15;18.90;;;0.00;99.90;;;-1.04;100.00;97942.63;4991925;28;20121;-48
2022/01/16 02:02:18;;;;;;;45.22;20.45;;;0.00;99.90;;;-1.12;100.00;97964.91;4989096;28;20103;-49
2022/01/16 02:04:44;;;;;;;42.58;19.48;;;-0.10;99.90;;;-1.11;100.00;97963.19;4993630;28;20032;-48
2022/01/16 02:07:10;;;;;;;34.00;17.83;;;-0.10;99.90;;;-1.10;100.00;97976.16;4989311;28;20037;-47
2022/01/16 02:09:37;;;;;;;36.08;17.45;;;-0.10;99.90;;;-1.06;100.00;97971.91;4992731;28;20104;-46
2022/01/16 02:12:04;;;;;;;43.20;19.13;;;-0.10;99.90;;;-1.10;100.00;97981.31;4991416;28;20386;-45
2022/01/16 02:14:35;;;;;;;41.90;20.15;;;-0.10;99.90;;;-1.11;100.00;97987.38;4974195;28;20034;-46
2022/01/16 02:28:51;;;;;;;36.92;19.15;;;-0.30;99.90;;;-1.25;100.00;97965.53;4989031;28;20080;-46
2022/01/16 02:31:17;;;;;;;42.30;19.70;;;-0.20;99.90;;;-1.29;100.00;97962.00;4989604;28;20544;-48
2022/01/16 02:36:30;;;;;;;40.03;19.58;;;-0.20;99.90;;;-1.16;100.00;97965.69;4988899;28;20037;-46
2022/01/16 02:39:01;;;;;;;38.35;19.35;;;-0.20;99.90;;;-1.14;100.00;97966.59;4992850;28;20112;-46
2022/01/16 02:41:27;;;;;;;30.77;16.90;;;-0.20;99.90;;;-1.14;100.00;97961.41;4990144;28;20038;-46
2022/01/16 02:43:55;;;;;;;36.33;17.58;;;-0.20;99.90;;;-1.12;100.00;97949.38;4998212;28;20208;-48
2022/01/16 02:48:51;;;;;;;39.58;18.80;;;-0.10;99.90;;;-1.19;100.00;97937.16;4986182;28;20034;-46
2022/01/16 02:51:19;;;;;;;40.65;19.95;;;-0.20;99.90;;;-1.27;100.00;97938.75;4992589;28;20041;-48
2022/01/16 02:53:49;;;;;;;38.60;19.88;;;-0.20;99.90;;;-1.37;100.00;97927.34;4994281;28;20132;-46
2022/01/16 02:56:16;;;;;;;39.47;19.73;;;-0.30;99.90;;;-1.37;100.00;97929.94;4991978;28;20037;-46
2022/01/16 02:58:43;;;;;;;38.97;19.33;;;-0.30;99.90;;;-1.39;100.00;97929.03;4997442;28;20096;-43
2022/01/16 03:01:09;;;;;;;36.35;18.35;;;-0.40;99.90;;;-1.40;100.00;97923.00;4990799;28;20161;-47
2022/01/16 03:03:34;;;;;;;32.13;17.27;;;-0.40;99.90;;;-1.35;100.00;97920.47;4986023;28;20048;-47
2022/01/16 03:06:00;;;;;;;35.40;17.63;;;-0.40;99.90;;;-1.29;100.00;97923.19;4985035;28;20377;-47
2022/01/16 03:08:26;;;;;;;31.48;16.75;;;-0.30;99.90;;;-1.37;100.00;97912.69;4972385;28;20044;-48
2022/01/16 03:13:24;;;;;;;32.78;17.55;;;-0.30;99.90;;;-1.23;100.00;97917.25;4991819;28;20049;-49
2022/01/16 03:15:52;;;;;;;32.92;17.67;;;-0.30;99.90;;;-1.19;100.00;97904.38;4991345;28;20825;-46
2022/01/16 03:23:30;;;;;;;38.20;18.67;;;-0.20;99.90;;;-1.22;100.00;97900.88;4995565;28;20145;-46
2022/01/16 03:25:56;;;;;;;36.50;18.02;;;-0.30;99.90;;;-1.21;100.00;97894.84;4993911;28;20053;-48
2022/01/16 03:28:25;;;;;;;41.15;19.83;;;-0.30;99.90;;;-1.21;100.00;97898.31;4996149;28;20040;-46
2022/01/16 03:30:53;;;;;;;37.70;18.45;;;-0.20;99.90;;;-1.21;100.00;97887.09;4992154;28;20065;-47
2022/01/16 03:33:20;;;;;;;39.05;19.60;;;-0.20;99.90;;;-1.24;100.00;97903.44;4994359;28;20029;-46
2022/01/16 03:35:47;;;;;;;35.95;19.02;;;-0.20;99.90;;;-1.27;100.00;97907.69;4998106;28;20113;-46
2022/01/16 03:38:14;;;;;;;38.90;19.20;;;-0.30;99.90;;;-1.31;100.00;97901.59;4993945;28;20271;-47
2022/01/16 03:40:40;;;;;;;39.53;18.98;;;-0.30;99.90;;;-1.30;100.00;97897.28;4995494;28;20395;-48
2022/01/16 03:43:15;;;;;;;33.08;17.77;;;-0.30;99.90;;;-1.24;100.00;97899.97;4994159;28;20046;-45
2022/01/16 03:45:43;;;;;;;38.53;19.30;;;-0.30;99.90;;;-1.25;100.00;97893.06;4994001;28;20034;-47
2022/01/16 03:48:09;;;;;;;33.42;17.75;;;-0.30;99.90;;;-1.14;100.00;97914.81;4995023;28;20038;-48
2022/01/16 03:50:35;;;;;;;36.70;17.50;;;-0.20;99.90;;;-1.11;100.00;97909.72;4994385;28;20275;-48
2022/01/16 03:53:01;;;;;;;38.10;19.38;;;-0.20;99.90;;;-1.10;100.00;97901.09;4992547;28;20120;-45
2022/01/16 03:55:26;;;;;;;36.33;19.73;;;-0.20;99.90;;;-1.13;100.00;97907.94;4994704;28;20710;-46
2022/01/16 03:57:52;;;;;;;38.10;19.25;;;-0.20;99.90;;;-1.23;100.00;97905.19;4994592;28;20036;-45
2022/01/16 04:00:18;;;;;;;41.13;20.75;;;-0.20;99.90;;;-1.18;100.00;97913.03;4992056;28;20037;-47
2022/01/16 04:02:44;;;;;;;39.80;19.00;;;-0.20;99.90;;;-1.23;100.00;97909.50;4996165;28;20025;-49
2022/01/16 04:05:09;;;;;;;42.70;19.90;;;-0.30;99.90;;;-1.24;100.00;97918.09;4993910;28;20053;-48
2022/01/16 04:07:35;;;;;;;36.47;18.77;;;-0.30;99.90;;;-1.24;100.00;97918.97;4992812;28;20310;-49
2022/01/16 04:10:07;;;;;;;35.25;16.75;;;-0.30;99.90;;;-1.24;100.00;97916.41;4993499;28;20042;-47
2022/01/16 04:12:35;;;;;;;36.85;18.25;;;-0.30;99.90;;;-1.24;100.00;97926.75;4995037;28;20065;-49
2022/01/16 04:17:27;;;;;;;40.92;20.42;;;-0.30;99.90;;;-1.37;100.00;97924.75;4994309;28;20037;-49
2022/01/16 04:19:53;;;;;;;38.17;19.60;;;-0.30;99.90;;;-1.38;100.00;97923.91;4993396;28;20084;-43
2022/01/16 04:22:20;;;;;;;40.20;19.83;;;-0.40;99.90;;;-1.35;100.00;97930.84;4990847;28;20100;-43
2022/01/16 04:24:47;;;;;;;33.05;17.17;;;-0.40;99.90;;;-1.30;100.00;97920.56;4990884;28;20033;-47
2022/01/16 04:27:13;;;;;;;36.63;19.00;;;-0.40;99.90;;;-1.36;100.00;97924.78;4991067;28;20290;-48
2022/01/16 04:29:42;;;;;;;36.63;18.55;;;-0.30;99.90;;;-1.48;100.00;97908.16;4992658;28;20495;-47
2022/01/16 04:32:08;;;;;;;42.45;19.95;;;-0.40;99.90;;;-1.48;100.00;97911.63;4993134;28;20038;-46
2022/01/16 04:34:34;;;;;;;36.90;19.20;;;-0.40;99.90;;;-1.49;100.00;97906.41;4977992;28;20320;-46
2022/01/16 04:37:00;;;;;;;36.85;17.83;;;-0.50;99.90;;;-1.50;100.00;97905.56;4999149;28;20041;-48
2022/01/16 04:39:32;;;;;;;36.53;19.05;;;-0.50;99.90;;;-1.55;100.00;97909.75;4993488;28;20177;-46
2022/01/16 04:44:43;;;;;;;36.72;17.85;;;-0.60;99.90;;;-1.56;100.00;97901.13;4993943;28;20068;-46
2022/01/16 04:47:09;;;;;;;37.75;18.50;;;-0.60;99.90;;;-1.57;100.00;97901.09;4990942;28;20030;-47
2022/01/16 04:49:35;;;;;;;31.65;18.20;;;-0.60;99.90;;;-1.59;100.00;97895.03;4991764;28;20685;-47
2022/01/16 04:52:00;;;;;;;33.15;18.13;;;-0.60;99.90;;;-1.62;100.00;97901.00;4993390;28;20115;-46
2022/01/16 04:54:26;;;;;;;39.17;18.92;;;-0.60;99.90;;;-1.67;100.00;97905.25;4989647;28;20034;-48
2022/01/16 04:56:52;;;;;;;39.58;19.00;;;-0.60;99.90;;;-1.71;100.00;97916.34;4995829;28;20563;-48
2022/01/16 04:59:19;;;;;;;33.70;18.38;;;-0.60;99.90;;;-1.80;100.00;97898.94;4998071;28;20038;-44
2022/01/16 05:01:45;;;;;;;37.17;18.23;;;-0.60;99.90;;;-1.71;100.00;97907.72;4991664;28;20447;-47
2022/01/16 05:04:11;;;;;;;36.78;17.88;;;-0.70;99.90;;;-1.74;100.00;97913.72;4991188;28;20045;-49
2022/01/16 05:06:37;;;;;;;32.88;18.17;;;-0.70;99.90;;;-1.78;100.00;97909.31;4992869;28;20030;-47
2022/01/16 05:09:03;;;;;;;35.88;18.35;;;-0.70;99.90;;;-1.77;100.00;97904.19;4992754;28;20112;-45
2022/01/16 05:11:29;;;;;;;35.85;17.90;;;-0.70;99.90;;;-1.79;100.00;97912.75;4996614;28;20161;-48
2022/01/16 05:16:39;;;;;;;33.03;17.88;;;-0.70;99.90;;;-1.71;100.00;97913.75;4995265;28;20396;-48
2022/01/16 05:19:14;;;;;;;31.33;16.63;;;-0.70;99.90;;;-1.68;100.00;97910.38;4992467;28;20140;-46
2022/01/16 05:21:42;;;;;;;38.10;17.38;;;-0.70;99.90;;;-1.73;100.00;97907.69;4993941;28;20511;-45
2022/01/16 05:24:11;;;;;;;29.73;16.38;;;-0.70;99.90;;;-1.67;100.00;97902.66;4992953;28;20044;-48
2022/01/16 05:26:39;;;;;;;34.85;17.15;;;-0.70;99.90;;;-1.69;100.00;97900.88;4997068;28;20115;-45
2022/01/16 05:29:05;;;;;;;32.47;16.88;;;-0.70;99.90;;;-1.74;100.00;97896.50;4993704;28;20144;-46
2022/01/16 05:31:31;;;;;;;35.50;17.77;;;-0.70;99.90;;;-1.78;100.00;97894.66;4993329;28;20656;-46
2022/01/16 05:33:59;;;;;;;32.03;17.15;;;-0.70;99.90;;;-1.78;100.00;97889.47;4990872;28;20495;-46
2022/01/16 05:36:25;;;;;;;28.92;15.82;;;-0.70;99.90;;;-1.74;100.00;97904.25;4993313;28;20049;-46
2022/01/16 05:38:53;;;;;;;31.98;16.30;;;-0.70;99.90;;;-1.73;100.00;97908.56;4991825;28;20045;-48
2022/01/16 05:41:19;;;;;;;30.15;15.15;;;-0.70;99.90;;;-1.67;100.00;97909.53;4989590;28;20049;-47
2022/01/16 05:43:46;;;;;;;31.63;16.17;;;-0.70;99.90;;;-1.68;100.00;97913.84;4992473;28;20410;-46
2022/01/16 05:46:13;;;;;;;31.40;17.10;;;-0.70;99.90;;;-1.78;100.00;97911.91;4992327;28;20044;-46
2022/01/16 05:48:39;;;;;;;32.83;16.58;;;-0.70;99.90;;;-1.75;100.00;97923.16;4991341;28;20059;-46
2022/01/16 05:51:04;;;;;;;35.13;17.05;;;-0.70;99.90;;;-1.80;100.00;97922.19;4990648;28;20366;-49
2022/01/16 05:53:30;;;;;;;32.85;17.35;;;-0.80;99.90;;;-1.80;100.00;97929.09;5001215;28;20041;-46
2022/01/16 05:55:56;;;;;;;30.35;16.67;;;-0.80;99.90;;;-1.87;100.00;97919.47;4999976;28;20160;-44
2022/01/16 05:58:21;;;;;;;28.15;16.30;;;-0.80;99.90;;;-1.96;100.00;97921.00;5002347;28;20918;-48
2022/01/16 06:00:48;;;;;;;28.55;16.08;;;-0.90;99.90;;;-2.04;100.00;97917.41;5002391;28;20026;-46
2022/01/16 06:03:14;;;;;;;28.20;15.57;;;-1.00;99.90;;;-2.16;100.00;97925.75;4999950;28;20254;-46
2022/01/16 06:05:40;;;;;;;32.53;15.85;;;-1.10;99.90;;;-2.17;100.00;97925.72;4996361;28;20499;-48
2022/01/16 06:08:09;;;;;;;30.38;16.00;;;-1.10;99.90;;;-2.22;100.00;97930.81;4992415;28;20190;-45
2022/01/16 06:10:35;;;;;;;29.92;15.10;;;-1.20;99.90;;;-2.30;100.00;97922.00;4995358;28;20515;-46
2022/01/16 06:13:04;;;;;;;23.88;14.85;;;-1.20;99.90;;;-2.22;100.00;97930.81;4989860;28;20252;-44
2022/01/16 06:15:30;;;;;;;28.75;16.02;;;-1.20;99.90;;;-2.37;100.00;97933.03;4985980;28;20029;-46
2022/01/16 06:17:55;;;;;;;29.15;15.70;;;-1.20;99.90;;;-2.27;100.00;97945.34;4987527;28;20561;-47
2022/01/16 06:20:21;;;;;;;27.88;14.80;;;-1.20;99.90;;;-2.22;100.00;97953.22;4986650;28;20036;-46
2022/01/16 06:22:47;;;;;;;26.55;14.75;;;-1.20;99.90;;;-2.29;100.00;97951.31;4986242;28;20045;-46
2022/01/16 06:25:14;;;;;;;27.35;14.90;;;-1.30;99.90;;;-2.38;100.00;97946.81;4987707;28;20041;-48
2022/01/16 06:27:41;;;;;;;26.88;15.55;;;-1.30;99.90;;;-2.41;100.00;97954.47;4988608;28;20048;-46
2022/01/16 06:30:09;;;;;;;27.02;15.13;;;-1.30;99.90;;;-2.42;100.00;97952.72;4987616;28;20072;-46
2022/01/16 06:32:36;;;;;;;26.35;15.35;;;-1.40;99.90;;;-2.44;100.00;97957.00;4985738;28;20038;-44
2022/01/16 06:35:03;;;;;;;26.52;14.65;;;-1.40;99.90;;;-2.39;100.00;97952.81;4984015;28;20037;-45
2022/01/16 06:37:29;;;;;;;28.17;15.68;;;-1.40;99.90;;;-2.37;100.00;97961.47;4971524;28;20222;-46
2022/01/16 06:39:55;;;;;;;30.40;15.43;;;-1.40;99.90;;;-2.40;100.00;97964.00;4986211;28;20049;-44
2022/01/16 06:42:20;;;;;;;29.20;15.07;;;-1.40;99.90;;;-2.44;100.00;97957.88;4985551;28;20029;-45
2022/01/16 06:44:46;;;;;;;25.17;14.95;;;-1.40;99.90;;;-2.53;100.00;97965.38;4992691;28;20038;-47
2022/01/16 06:47:12;;;;;;;24.10;14.75;;;-1.50;99.90;;;-2.64;100.00;97965.13;4990062;28;20485;-51
2022/01/16 06:49:38;;;;;;;26.67;14.40;;;-1.50;99.90;;;-2.68;100.00;97965.91;4992703;28;20404;-48
2022/01/16 06:52:05;;;;;;;24.63;14.10;;;-1.60;99.90;;;-2.74;100.00;97968.34;4993043;28;20062;-47
2022/01/16 06:54:30;;;;;;;23.20;14.60;;;-1.70;99.90;;;-2.83;100.00;97948.34;4997821;28;20032;-44
2022/01/16 06:56:56;;;;;;;26.13;14.60;;;-1.80;99.90;;;-2.85;100.00;97964.59;4996731;28;20026;-49
2022/01/16 06:59:22;;;;;;;25.80;15.05;;;-1.80;99.90;;;-2.93;100.00;97967.88;5004178;28;20106;-47
2022/01/16 07:01:48;;;;;;;27.63;15.67;;;-1.90;99.90;;;-2.92;100.00;97968.75;5000299;28;20022;-49
2022/01/16 07:04:14;;;;;;;27.85;15.25;;;-1.90;99.90;;;-3.06;100.00;97978.72;5000513;28;20239;-47
2022/01/16 07:06:39;;;;;;;27.75;15.38;;;-2.00;99.90;;;-3.19;100.00;97982.69;5001166;28;20396;-47
2022/01/16 07:09:05;;;;;;;27.45;14.45;;;-2.10;99.90;;;-3.29;100.00;97993.59;4994610;28;20120;-44
2022/01/16 07:11:31;;;;;;;29.10;15.07;;;-2.20;99.90;;;-3.37;100.00;97998.53;5000168;28;20644;-47
2022/01/16 07:13:57;;;;;;;25.85;14.23;;;-2.20;99.90;;;-3.33;100.00;98005.53;4999900;28;20026;-46
2022/01/16 07:16:22;;;;;;;26.10;14.75;;;-2.30;99.90;;;-3.31;100.00;98010.72;5000810;28;20105;-46
2022/01/16 07:18:48;;;;;;;24.58;14.15;;;-2.30;99.90;;;-3.36;100.00;98009.72;4997008;28;20034;-45
2022/01/16 07:21:15;;;;;;;29.50;15.27;;;-2.30;99.90;;;-3.33;100.00;98002.09;4996600;28;20065;-45
2022/01/16 07:23:43;;;;;;;25.58;14.52;;;-2.30;99.90;;;-3.24;100.00;98006.63;4998805;28;20032;-47
2022/01/16 07:26:08;;;;;;;24.95;13.98;;;-2.20;99.90;;;-3.20;100.00;98011.03;4998881;28;20037;-45
2022/01/16 07:28:35;;;;;;;27.98;14.85;;;-2.20;99.90;;;-3.11;100.00;98014.72;4999662;28;20034;-47
2022/01/16 07:31:01;;;;;;;31.65;15.45;;;-2.10;99.90;;;-2.89;100.00;98030.78;4996300;28;20134;-46
2022/01/16 07:33:27;;;;;;;29.55;15.95;;;-1.90;99.90;;;-2.83;100.00;98035.25;4998443;28;20080;-47
2022/01/16 07:35:52;;;;;;;30.35;15.82;;;-1.70;99.90;;;-2.70;100.00;98034.72;5001695;28;20458;-48
2022/01/16 07:38:18;;;;;;;33.88;16.45;;;-1.70;99.90;;;-2.59;100.00;98025.53;5001834;28;20034;-46
2022/01/16 07:40:44;;;;;;;31.25;16.77;;;-1.60;99.90;;;-2.47;100.00;98027.53;5001573;28;20112;-47
2022/01/16 07:43:09;;;;;;;28.75;16.25;;;-1.50;99.90;;;-2.43;100.00;98025.91;4999686;28;20037;-46
2022/01/16 07:45:37;;;;;;;32.58;17.23;;;-1.40;99.90;;;-2.35;100.00;98045.94;4998584;28;20060;-46
2022/01/16 07:48:06;;;;;;;32.35;16.45;;;-1.30;99.90;;;-2.20;100.00;98032.50;5000053;28;20065;-45
2022/01/16 07:50:33;;;;;;;31.42;16.70;;;-1.20;99.90;;;-2.17;100.00;98042.00;4999934;28;20025;-47
2022/01/16 07:52:59;;;;;;;31.45;16.30;;;-1.10;99.90;;;-2.17;100.00;98049.78;4998802;28;20471;-46
2022/01/16 07:55:26;;;;;;;36.35;17.83;;;-1.10;99.90;;;-2.24;100.00;98048.78;5001088;28;20053;-44
2022/01/16 07:57:53;;;;;;;30.02;16.20;;;-1.20;99.90;;;-2.24;100.00;98048.78;4999587;28;20037;-48
2022/01/16 08:00:20;;;;;;;31.05;17.13;;;-1.20;99.90;;;-2.22;100.00;98054.84;4999898;28;20383;-43
2022/01/16 08:02:47;;;;;;;30.65;17.77;;;-1.20;99.90;;;-2.27;100.00;98064.19;4998020;28;20045;-45
2022/01/16 08:05:12;;;;;;;35.25;16.95;;;-1.20;99.90;;;-2.31;100.00;98072.72;5000613;28;20092;-47
2022/01/16 08:07:38;;;;;;;35.22;17.83;;;-1.20;99.90;;;-2.31;100.00;98083.06;5003447;28;20026;-46
2022/01/16 08:10:08;;;;;;;32.40;18.63;;;-1.20;99.90;;;-2.35;100.00;98081.19;5002177;28;20148;-48
2022/01/16 08:12:34;;;;;;;35.22;18.88;;;-1.20;99.90;;;-2.28;100.00;98093.44;5004981;28;20025;-47
2022/01/16 08:15:00;;;;;;;33.60;17.90;;;-1.20;99.90;;;-2.23;100.00;98086.69;5003112;28;20042;-46
2022/01/16 08:17:26;;;;;;;35.17;18.33;;;-1.10;99.90;;;-2.18;100.00;98091.97;5005801;28;20080;-47
2022/01/16 08:19:52;;;;;;;33.67;17.67;;;-1.10;99.90;;;-2.15;100.00;98087.75;5002420;28;20045;-47
2022/01/16 08:22:17;;;;;;;34.55;18.30;;;-1.00;99.90;;;-2.06;100.00;98081.03;5004551;28;20089;-45
2022/01/16 08:24:43;;;;;;;33.97;18.15;;;-1.00;99.90;;;-1.97;100.00;98083.88;5001809;28;20030;-46
2022/01/16 08:27:09;;;;;;;32.35;17.90;;;-0.90;99.90;;;-1.80;100.00;98092.00;5003772;28;20034;-45
2022/01/16 08:29:35;;;;;;;34.83;18.77;;;-0.80;99.90;;;-1.55;100.00;98081.34;5003770;28;20042;-46
2022/01/16 08:32:01;;;;;;;35.05;18.33;;;-0.60;99.90;;;-1.50;100.00;98071.13;5004277;28;20030;-47
2022/01/16 08:34:26;;;;;;;34.78;17.30;;;-0.50;99.90;;;-1.26;100.00;98085.41;5002979;28;20026;-46
2022/01/16 08:36:52;;;;;;;32.15;17.52;;;-0.30;99.90;;;-1.29;100.00;98080.16;5004307;28;20060;-46
2022/01/16 08:39:18;;;;;;;30.20;16.88;;;-0.30;99.90;;;-1.19;100.00;98092.47;5003472;28;20464;-46
2022/01/16 08:41:43;;;;;;;34.17;17.10;;;-0.20;99.90;;;-1.02;100.00;98093.69;5005406;28;20022;-48
2022/01/16 08:44:09;;;;;;;34.92;18.55;;;-0.10;99.90;;;-0.79;100.00;98104.50;5003017;28;20133;-47
2022/01/16 08:46:35;;;;;;;30.23;16.45;;;0.10;99.90;;;-0.67;100.00;98102.97;5004954;28;20041;-46
2022/01/16 08:49:01;;;;;;;30.35;16.77;;;0.20;99.90;;;-0.65;100.00;98099.56;5003345;28;20065;-46
2022/01/16 08:51:27;;;;;;;32.35;18.00;;;0.30;99.90;;;-0.78;100.00;98111.41;5005182;28;20041;-44
2022/01/16 08:53:53;;;;;;;32.40;18.73;;;0.30;99.90;;;-0.90;100.00;98115.47;5003945;28;20571;-47
2022/01/16 08:56:20;;;;;;;29.65;16.27;;;0.20;99.90;;;-0.87;100.00;98110.38;5003147;28;20096;-45
2022/01/16 08:58:45;;;;;;;29.83;16.55;;;0.10;99.90;;;-0.84;100.00;98119.06;5001364;28;20128;-46
2022/01/16 09:01:11;;;;;;;32.13;17.30;;;0.10;99.90;;;-0.97;100.00;98119.66;5001674;28;20033;-46
2022/01/16 09:03:38;;;;;;;27.15;16.10;;;0.10;99.90;;;-0.88;100.00;98118.97;5002659;28;20066;-46
2022/01/16 09:06:05;;;;;;;31.42;17.10;;;0.10;99.90;;;-0.81;100.00;98129.50;5001310;28;20080;-48
2022/01/16 09:08:31;;;;;;;30.50;17.30;;;0.20;99.90;;;-0.71;100.00;98130.53;4994630;28;20518;-44
2022/01/16 09:10:57;;;;;;;29.15;16.00;;;0.20;99.90;;;-0.61;100.00;98127.28;4998104;28;20025;-47
2022/01/16 09:13:22;;;;;;;27.52;16.00;;;0.30;99.90;;;-0.48;100.00;98133.56;5001498;28;20045;-46
2022/01/16 09:15:50;;;;;;;26.00;16.20;;;0.40;99.90;;;-0.42;100.00;98135.41;4996674;28;20556;-47
2022/01/16 09:18:18;;;;;;;28.88;16.65;;;0.50;99.90;;;-0.35;100.00;98137.25;5000573;28;20087;-47
2022/01/16 09:20:46;;;;;;;25.63;15.45;;;0.60;99.90;;;-0.23;100.00;98129.72;4997115;28;20042;-42
2022/01/16 09:23:12;;;;;;;26.60;15.23;;;0.70;99.90;;;-0.12;100.00;98142.84;5000175;28;20041;-47
2022/01/16 09:25:38;;;;;;;25.35;15.32;;;0.80;99.90;;;0.01;100.00;98149.13;4996453;28;20061;-41
2022/01/16 09:28:04;;;;;;;25.88;15.00;;;0.90;99.90;;;0.09;100.00;98149.22;4987286;28;20038;-45
2022/01/16 09:30:31;;;;;;;23.45;15.00;;;1.00;99.90;;;0.16;100.00;98146.78;4992375;28;20030;-45
2022/01/16 09:32:57;;;;;;;23.42;15.32;;;1.00;99.90;;;0.23;100.00;98154.66;4988470;28;20040;-46
2022/01/16 09:35:23;;;;;;;26.95;15.65;;;1.10;99.90;;;0.35;100.00;98162.66;5000917;28;20030;-46
2022/01/16 09:37:49;;;;;;;24.33;15.27;;;1.20;99.90;;;0.46;100.00;98160.22;5001508;28;20034;-48
2022/01/16 09:40:19;;;;;;;28.45;16.15;;;1.30;99.90;;;0.50;100.00;98160.28;5001358;28;20040;-43
2022/01/16 09:42:46;;;;;;;25.85;15.93;;;1.40;99.90;;;0.59;100.00;98161.28;5003891;28;20034;-47
2022/01/16 09:45:17;;;;;;;25.13;14.75;;;1.40;99.90;;;0.66;100.00;98166.56;5000270;28;20030;-46
2022/01/16 09:47:45;;;;;;;25.20;15.27;;;1.50;99.90;;;0.73;100.00;98178.78;5002091;28;20480;-46
2022/01/16 09:50:15;;;;;;;23.73;14.68;;;1.60;99.90;;;0.78;100.00;98180.59;5001588;28;20410;-47
2022/01/16 09:52:43;;;;;;;25.58;15.20;;;1.60;99.90;;;0.63;100.00;98150.06;5001384;28;20129;-47
2022/01/16 09:55:10;;;;;;;28.38;15.60;;;1.60;99.90;;;0.77;100.00;98184.91;4997306;28;20034;-47
2022/01/16 09:57:37;;;;;;;25.23;15.35;;;1.70;99.90;;;0.84;100.00;98185.88;4988786;28;20034;-46
2022/01/16 10:00:13;;;;;;;27.00;15.80;;;1.70;99.90;;;0.89;100.00;98181.63;4996354;28;20073;-47
2022/01/16 10:02:40;;;;;;;28.58;16.10;;;1.70;99.90;;;0.91;100.00;98180.75;5000620;28;20034;-48
2022/01/16 10:05:31;;;;;;;29.95;16.23;;;1.80;99.90;;;0.84;100.00;98189.31;5003595;28;20033;-47
2022/01/16 10:08:00;;;;;;;27.80;16.15;;;1.80;99.90;;;0.80;100.00;98189.28;5001817;28;20045;-46
2022/01/16 10:10:33;;;;;;;24.48;14.57;;;1.70;99.90;;;0.79;100.00;98179.72;5003278;28;20084;-48
2022/01/16 10:13:07;;;;;;;25.50;15.02;;;1.70;99.90;;;0.96;100.00;98188.63;5001198;28;20021;-47
2022/01/16 10:15:34;;;;;;;25.02;15.50;;;1.80;99.90;;;1.08;100.00;98193.13;5003055;28;20028;-47
2022/01/16 10:18:05;;;;;;;24.65;14.88;;;1.90;99.90;;;1.17;100.00;98182.88;5001716;28;20128;-46
2022/01/16 10:20:43;;;;;;;23.50;14.02;;;2.00;99.90;;;1.29;100.00;98179.53;5002815;28;20049;-45
2022/01/16 10:23:18;;;;;;;28.02;16.25;;;2.10;99.90;;;1.32;100.00;98174.38;5001985;28;20173;-49
2022/01/16 10:25:47;;;;;;;25.33;15.70;;;2.20;99.90;;;1.41;100.00;98171.88;5002411;28;20095;-47
2022/01/16 10:28:25;;;;;;;26.35;15.95;;;2.30;99.90;;;1.45;100.00;98175.38;4999791;28;20465;-47
2022/01/16 10:33:25;;;;;;;27.10;15.35;;;2.40;99.90;;;1.59;100.00;98171.22;5031545;23;20864;-86
2022/01/16 10:35:55;;;;;;;28.13;16.27;;;2.40;99.90;;;1.63;100.00;98170.38;5013383;28;20033;-86
2022/01/16 10:38:27;;;;;;;26.17;15.98;;;2.50;99.90;;;1.55;100.00;98158.19;5016557;28;20059;-86
2022/01/16 10:40:57;;;;;;;26.35;16.10;;;2.40;99.90;;;1.58;100.00;98168.59;5016152;28;20428;-87
2022/01/16 10:43:39;;;;;;;27.40;15.02;;;2.40;99.90;;;1.69;100.00;98185.22;5001105;28;20202;-86
2022/01/16 10:46:05;;;;;;;25.70;15.30;;;2.50;99.90;;;1.87;100.00;98182.78;5015679;28;20399;-85
2022/01/16 10:48:32;;;;;;;27.13;15.55;;;2.70;99.90;;;1.89;100.00;98164.59;5029393;28;20474;-85
2022/01/16 10:50:59;;;;;;;24.92;15.75;;;2.80;99.90;;;2.01;99.78;98187.25;5012454;28;20052;-86